Time;durP1;ratioP1;P1;durP2;ratioP2;P2;SDS_P1;SDS_P2;PMS_P1;PMS_P2;Temp;Humidity;BMP_temperature;BMP_pressure;BME280_temperature;BME280_humidity;BME280_pressure;Samples;Min_cycle;Max_cycle;Signal;HPM_P1;HPM_P2
2021/03/31 00:01:35;;;;;;;16.50;13.03;;;13.60;71.00;;;;;;5073658;28;20205;-70
2021/03/31 00:04:01;;;;;;;15.80;12.03;;;13.60;71.60;;;;;;5072877;28;20187;-70
2021/03/31 00:06:27;;;;;;;15.80;13.03;;;13.60;71.40;;;;;;5073240;28;20181;-71
2021/03/31 00:08:52;;;;;;;16.77;13.17;;;13.60;71.50;;;;;;5073547;28;20309;-71
2021/03/31 00:11:18;;;;;;;20.77;13.50;;;13.50;71.50;;;;;;5072511;28;20269;-71
2021/03/31 00:13:44;;;;;;;14.17;12.30;;;13.50;71.80;;;;;;5073465;28;20177;-70
2021/03/31 00:16:10;;;;;;;14.23;12.37;;;13.50;71.90;;;;;;5072132;28;20189;-71
2021/03/31 00:18:36;;;;;;;18.47;13.40;;;13.50;72.40;;;;;;5072903;28;20584;-71
2021/03/31 00:21:03;;;;;;;15.50;12.73;;;13.40;72.20;;;;;;5072657;28;20429;-70
2021/03/31 00:23:29;;;;;;;19.03;12.90;;;13.40;72.10;;;;;;5072920;28;20428;-71
2021/03/31 00:25:56;;;;;;;15.33;12.80;;;13.30;72.00;;;;;;5072992;28;20772;-71
2021/03/31 00:28:23;;;;;;;18.30;13.40;;;13.30;72.20;;;;;;5072324;28;20418;-71
2021/03/31 00:30:50;;;;;;;14.57;13.10;;;13.30;72.70;;;;;;5072769;28;20500;-71
2021/03/31 00:33:16;;;;;;;18.27;13.87;;;13.20;72.70;;;;;;5071824;28;20476;-70
2021/03/31 00:35:42;;;;;;;15.33;12.40;;;13.20;72.70;;;;;;5073140;28;20431;-71
2021/03/31 00:38:09;;;;;;;16.73;13.60;;;13.10;72.80;;;;;;5072568;28;20477;-73
2021/03/31 00:40:36;;;;;;;19.30;12.90;;;13.20;73.30;;;;;;5072828;28;20432;-73
2021/03/31 00:43:03;;;;;;;20.83;14.23;;;13.20;73.40;;;;;;5071897;28;20400;-73
2021/03/31 00:45:28;;;;;;;17.67;13.80;;;13.10;73.30;;;;;;5072519;28;20430;-71
2021/03/31 00:47:54;;;;;;;16.20;13.77;;;13.10;73.50;;;;;;5073150;28;20419;-70
2021/03/31 00:50:20;;;;;;;16.20;13.70;;;13.00;73.60;;;;;;5071915;28;20180;-70
2021/03/31 00:52:48;;;;;;;18.90;14.30;;;13.00;74.00;;;;;;5072706;28;20197;-70
2021/03/31 00:55:17;;;;;;;16.20;13.70;;;13.00;73.80;;;;;;5071902;28;20785;-70
2021/03/31 00:57:43;;;;;;;15.40;13.43;;;12.90;74.00;;;;;;5072596;28;20551;-70
2021/03/31 01:00:11;;;;;;;18.13;13.57;;;12.90;74.30;;;;;;5071669;28;20415;-70
2021/03/31 01:02:37;;;;;;;18.60;14.47;;;12.80;74.50;;;;;;5072271;28;20554;-70
2021/03/31 01:05:24;;;;;;;16.37;12.87;;;12.80;74.80;;;;;;5071933;28;20439;-70
2021/03/31 01:07:50;;;;;;;21.23;13.70;;;12.80;74.90;;;;;;5072717;28;20465;-71
2021/03/31 01:10:19;;;;;;;16.23;13.57;;;12.80;75.40;;;;;;5071833;28;20431;-70
2021/03/31 01:13:06;;;;;;;15.77;13.07;;;12.80;75.50;;;;;;5072290;28;20454;-73
2021/03/31 01:15:38;;;;;;;19.87;14.20;;;12.80;75.40;;;;;;5072304;28;20427;-73
2021/03/31 01:18:08;;;;;;;16.07;13.97;;;12.80;75.40;;;;;;5071917;28;20477;-73
2021/03/31 01:20:56;;;;;;;14.37;12.90;;;12.80;75.20;;;;;;5072380;28;20434;-73
2021/03/31 01:23:59;;;;;;;19.87;14.40;;;12.70;75.10;;;;;;5070869;28;20437;-73
2021/03/31 01:26:31;;;;;;;21.70;14.60;;;12.60;75.50;;;;;;5071856;28;20410;-73
2021/03/31 01:29:20;;;;;;;17.60;14.33;;;12.60;75.60;;;;;;5072482;28;20485;-73
2021/03/31 01:31:58;;;;;;;18.37;14.50;;;12.60;75.80;;;;;;5072122;28;20532;-73
2021/03/31 01:34:34;;;;;;;17.93;14.40;;;12.60;75.70;;;;;;5071643;28;20420;-73
2021/03/31 01:37:03;;;;;;;17.00;14.63;;;12.60;76.00;;;;;;5071840;28;20910;-73
2021/03/31 01:39:30;;;;;;;18.37;13.70;;;12.50;76.10;;;;;;5072178;28;20455;-73
2021/03/31 01:41:59;;;;;;;17.57;14.80;;;12.50;76.20;;;;;;5072222;28;20407;-73
2021/03/31 01:44:26;;;;;;;22.13;16.60;;;12.40;76.40;;;;;;5070815;28;20432;-73
2021/03/31 01:46:56;;;;;;;18.43;14.40;;;12.40;76.90;;;;;;5071581;28;20456;-72
2021/03/31 01:49:24;;;;;;;16.50;14.33;;;12.30;76.80;;;;;;5071180;28;20564;-73
2021/03/31 01:51:55;;;;;;;20.90;14.87;;;12.30;76.80;;;;;;5070945;28;20447;-72
2021/03/31 01:54:22;;;;;;;16.37;14.63;;;12.30;77.10;;;;;;5071388;28;20551;-72
2021/03/31 01:56:48;;;;;;;18.33;14.40;;;12.20;77.00;;;;;;5072087;28;20463;-72
2021/03/31 01:59:19;;;;;;;16.17;13.57;;;12.20;77.50;;;;;;5071591;28;20493;-71
2021/03/31 02:01:49;;;;;;;20.33;15.20;;;12.20;77.60;;;;;;5073202;28;20420;-71
2021/03/31 02:04:16;;;;;;;17.83;13.97;;;12.20;77.80;;;;;;5075525;28;20389;-71
2021/03/31 02:06:42;;;;;;;17.80;14.13;;;12.10;77.80;;;;;;5076103;28;20421;-71
2021/03/31 02:09:10;;;;;;;22.00;14.90;;;12.10;78.30;;;;;;5075313;28;20399;-71
2021/03/31 02:11:37;;;;;;;21.00;14.80;;;12.00;78.30;;;;;;5075750;28;20457;-71
2021/03/31 02:14:05;;;;;;;21.30;14.60;;;12.00;78.40;;;;;;5075349;28;20431;-71
2021/03/31 02:16:33;;;;;;;18.07;15.07;;;11.90;78.60;;;;;;5075962;28;20417;-71
2021/03/31 02:19:00;;;;;;;17.50;15.10;;;11.90;79.20;;;;;;5076033;28;20805;-71
2021/03/31 02:21:26;;;;;;;23.03;16.30;;;11.90;79.30;;;;;;5073849;28;20394;-71
2021/03/31 02:23:53;;;;;;;18.20;15.20;;;11.90;79.40;;;;;;5075822;28;20424;-71
2021/03/31 02:26:20;;;;;;;18.73;14.90;;;11.90;79.40;;;;;;5074962;28;20418;-71
2021/03/31 02:28:46;;;;;;;17.90;13.77;;;11.80;79.50;;;;;;5075085;28;20430;-71
2021/03/31 02:31:16;;;;;;;21.07;15.67;;;11.70;80.00;;;;;;5074441;28;20513;-71
2021/03/31 02:33:44;;;;;;;21.37;14.80;;;11.80;80.50;;;;;;5075890;28;20443;-71
2021/03/31 02:36:14;;;;;;;19.30;14.13;;;11.80;80.70;;;;;;5079051;28;20962;-71
2021/03/31 02:38:44;;;;;;;18.50;15.03;;;11.80;80.30;;;;;;5095540;28;20426;-71
2021/03/31 02:41:11;;;;;;;18.77;13.40;;;11.80;80.30;;;;;;5095054;28;20419;-72
2021/03/31 02:43:43;;;;;;;17.20;14.17;;;11.70;80.50;;;;;;5095508;28;20412;-70
2021/03/31 02:46:13;;;;;;;22.07;15.33;;;11.70;80.50;;;;;;5092237;28;20454;-70
2021/03/31 02:48:41;;;;;;;19.70;15.00;;;11.70;80.80;;;;;;5074325;28;20405;-70
2021/03/31 02:51:08;;;;;;;18.43;14.80;;;11.60;81.00;;;;;;5074690;28;20406;-70
2021/03/31 02:53:34;;;;;;;19.03;15.20;;;11.60;81.10;;;;;;5075192;28;20395;-70
2021/03/31 02:56:04;;;;;;;17.53;14.30;;;11.70;81.40;;;;;;5074725;28;20491;-70
2021/03/31 02:58:30;;;;;;;25.20;17.13;;;11.60;81.50;;;;;;5074205;28;20208;-71
2021/03/31 03:00:57;;;;;;;24.77;16.77;;;11.60;81.80;;;;;;5075122;28;20425;-70
2021/03/31 03:03:23;;;;;;;23.97;15.67;;;11.60;82.30;;;;;;5074278;28;20402;-71
2021/03/31 03:05:49;;;;;;;23.10;16.57;;;11.60;82.40;;;;;;5073883;28;20411;-72
2021/03/31 03:08:15;;;;;;;22.80;16.50;;;11.60;82.60;;;;;;5074152;28;20422;-72
2021/03/31 03:10:41;;;;;;;19.70;15.80;;;11.60;82.40;;;;;;5074610;28;20413;-72
2021/03/31 03:13:08;;;;;;;19.93;15.50;;;11.60;82.40;;;;;;5073102;28;20793;-72
2021/03/31 03:15:34;;;;;;;19.50;16.13;;;11.70;82.30;;;;;;5074530;28;20406;-72
2021/03/31 03:18:00;;;;;;;17.83;15.43;;;11.70;82.00;;;;;;5074699;28;20500;-72
2021/03/31 03:20:26;;;;;;;20.87;15.63;;;11.60;82.20;;;;;;5074019;28;20400;-72
2021/03/31 03:22:55;;;;;;;19.97;15.20;;;11.70;82.00;;;;;;5074210;28;20191;-72
2021/03/31 03:25:24;;;;;;;21.93;15.50;;;11.60;81.80;;;;;;5073639;28;20564;-73
2021/03/31 03:27:51;;;;;;;20.27;14.77;;;11.60;81.90;;;;;;5074695;28;20803;-72
2021/03/31 03:30:19;;;;;;;18.03;14.80;;;11.60;82.10;;;;;;5073765;28;20482;-73
2021/03/31 03:32:48;;;;;;;17.73;14.53;;;11.60;81.90;;;;;;5074674;28;20479;-72
2021/03/31 03:35:16;;;;;;;19.20;14.40;;;11.60;82.00;;;;;;5072551;28;20490;-71
2021/03/31 03:37:47;;;;;;;17.37;14.63;;;11.50;82.00;;;;;;5074141;28;20431;-71
2021/03/31 03:40:15;;;;;;;20.07;15.60;;;11.50;82.20;;;;;;5073626;28;20449;-72
2021/03/31 03:42:41;;;;;;;17.90;15.07;;;11.50;82.20;;;;;;5074154;28;20415;-72
2021/03/31 03:45:08;;;;;;;19.03;14.73;;;11.40;82.20;;;;;;5072939;28;20418;-72
2021/03/31 03:47:35;;;;;;;19.70;15.00;;;11.50;82.30;;;;;;5073754;28;20407;-71
2021/03/31 03:50:02;;;;;;;19.80;14.63;;;11.50;82.40;;;;;;5073617;28;20940;-72
2021/03/31 03:52:29;;;;;;;16.70;13.50;;;11.50;82.00;;;;;;5073216;28;21171;-71
2021/03/31 03:54:55;;;;;;;19.20;14.70;;;11.50;81.70;;;;;;5074094;28;20757;-71
2021/03/31 03:57:23;;;;;;;19.35;16.40;;;11.50;81.50;;;;;;5072685;28;20438;-72
2021/03/31 03:59:49;;;;;;;17.10;14.03;;;11.50;81.40;;;;;;5073334;28;20177;-72
2021/03/31 04:02:15;;;;;;;17.90;13.90;;;11.60;81.70;;;;;;5072988;28;20502;-72
2021/03/31 04:04:41;;;;;;;21.83;15.40;;;11.60;82.40;;;;;;5073865;28;20181;-72
2021/03/31 04:07:06;;;;;;;14.70;12.80;;;11.70;82.00;;;;;;5073885;28;20593;-72
2021/03/31 04:09:32;;;;;;;15.33;13.53;;;11.80;81.70;;;;;;5073086;28;20184;-72
2021/03/31 04:11:59;;;;;;;15.10;12.90;;;11.80;81.00;;;;;;5073581;28;20193;-72
2021/03/31 04:14:25;;;;;;;16.07;13.70;;;11.90;80.50;;;;;;5072909;28;20415;-72
2021/03/31 04:16:53;;;;;;;16.07;12.80;;;11.90;80.30;;;;;;5073305;28;20413;-72
2021/03/31 04:19:19;;;;;;;19.27;14.27;;;11.90;80.30;;;;;;5072322;28;20934;-72
2021/03/31 04:21:45;;;;;;;16.43;14.10;;;11.90;79.80;;;;;;5073523;28;20426;-72
2021/03/31 04:24:13;;;;;;;16.47;14.73;;;11.90;80.10;;;;;;5072805;28;20400;-71
2021/03/31 04:26:39;;;;;;;20.87;14.80;;;12.00;80.10;;;;;;5073320;28;20207;-72
2021/03/31 04:29:10;;;;;;;19.03;14.83;;;11.90;79.80;;;;;;5073346;28;20496;-72
2021/03/31 04:31:37;;;;;;;20.17;16.10;;;12.00;80.00;;;;;;5072827;28;20466;-72
2021/03/31 04:34:04;;;;;;;20.05;15.70;;;11.90;79.90;;;;;;5073094;28;20440;-72
2021/03/31 04:36:30;;;;;;;21.43;16.43;;;12.00;80.70;;;;;;5072418;28;20172;-72
2021/03/31 04:38:56;;;;;;;19.33;14.30;;;12.00;80.00;;;;;;5073150;28;20412;-71
2021/03/31 04:41:21;;;;;;;23.00;13.77;;;11.90;79.80;;;;;;5072435;28;20477;-71
2021/03/31 04:43:47;;;;;;;19.10;14.53;;;11.90;79.40;;;;;;5073089;28;20256;-71
2021/03/31 04:46:13;;;;;;;15.63;13.23;;;11.80;79.10;;;;;;5072153;28;20231;-72
2021/03/31 04:48:39;;;;;;;15.03;12.50;;;11.80;79.60;;;;;;5073379;28;20184;-71
2021/03/31 04:51:06;;;;;;;13.43;11.63;;;11.70;79.40;;;;;;5073258;28;20180;-71
2021/03/31 04:53:32;;;;;;;12.77;11.40;;;11.70;79.30;;;;;;5072673;28;20813;-71
2021/03/31 04:55:59;;;;;;;17.53;12.33;;;11.60;79.10;;;;;;5072841;28;20729;-71
2021/03/31 04:58:25;;;;;;;18.63;10.83;;;11.60;78.70;;;;;;5072603;28;20920;-71
2021/03/31 05:00:51;;;;;;;12.93;11.63;;;11.50;78.30;;;;;;5072870;28;20419;-71
2021/03/31 05:03:17;;;;;;;12.50;10.40;;;11.50;78.30;;;;;;5072500;28;20428;-71
2021/03/31 05:05:43;;;;;;;13.80;10.00;;;11.50;78.30;;;;;;5073327;28;20435;-71
2021/03/31 05:08:09;;;;;;;15.00;9.80;;;11.50;78.30;;;;;;5073080;28;20403;-71
2021/03/31 05:10:35;;;;;;;12.40;11.10;;;11.50;78.50;;;;;;5072402;28;20259;-71
2021/03/31 05:13:01;;;;;;;12.50;9.90;;;11.50;78.20;;;;;;5072885;28;20592;-71
2021/03/31 05:15:26;;;;;;;14.53;10.07;;;11.50;78.30;;;;;;5072240;28;20410;-71
2021/03/31 05:17:52;;;;;;;11.30;9.90;;;11.30;77.90;;;;;;5072840;28;20417;-71
2021/03/31 05:20:18;;;;;;;16.17;10.83;;;11.30;78.10;;;;;;5072518;28;20202;-71
2021/03/31 05:22:44;;;;;;;11.83;10.50;;;11.30;78.20;;;;;;5073129;28;20633;-71
2021/03/31 05:25:10;;;;;;;11.70;10.10;;;11.30;78.40;;;;;;5072873;28;20266;-71
2021/03/31 05:27:36;;;;;;;11.30;10.07;;;11.30;78.50;;;;;;5072143;28;20774;-71
2021/03/31 05:30:06;;;;;;;11.13;9.90;;;11.30;78.00;;;;;;5072686;28;20948;-71
2021/03/31 05:32:32;;;;;;;14.70;11.00;;;11.30;78.20;;;;;;5072193;28;20528;-71
2021/03/31 05:34:57;;;;;;;11.90;10.40;;;11.30;78.60;;;;;;5072604;28;20419;-71
2021/03/31 05:37:23;;;;;;;13.57;11.17;;;11.30;78.60;;;;;;5071288;28;20420;-71
2021/03/31 05:39:49;;;;;;;11.63;10.43;;;11.20;78.70;;;;;;5072318;28;20402;-71
2021/03/31 05:42:15;;;;;;;11.40;10.20;;;11.20;78.90;;;;;;5071924;28;20533;-71
2021/03/31 05:44:43;;;;;;;12.90;9.20;;;11.30;79.40;;;;;;5072516;28;20410;-71
2021/03/31 05:47:12;;;;;;;11.10;10.00;;;11.30;79.50;;;;;;5072427;28;20411;-71
2021/03/31 05:49:38;;;;;;;12.67;10.30;;;11.30;79.60;;;;;;5071371;28;20408;-71
2021/03/31 05:52:07;;;;;;;10.73;9.63;;;11.20;79.30;;;;;;5070726;28;20456;-72
2021/03/31 05:54:33;;;;;;;12.00;9.90;;;11.20;79.60;;;;;;5068673;28;20496;-72
2021/03/31 05:56:59;;;;;;;10.83;9.80;;;11.20;80.40;;;;;;5071055;28;20478;-72
2021/03/31 05:59:25;;;;;;;12.03;9.60;;;11.20;80.50;;;;;;5070800;28;20210;-71
2021/03/31 06:01:51;;;;;;;12.40;11.10;;;11.20;81.00;;;;;;5071664;28;20488;-71
2021/03/31 06:04:18;;;;;;;11.00;9.90;;;11.20;81.40;;;;;;5071566;28;20185;-71
2021/03/31 06:06:43;;;;;;;12.50;11.10;;;11.20;81.40;;;;;;5072354;28;20226;-71
2021/03/31 06:09:10;;;;;;;12.40;9.90;;;11.20;81.40;;;;;;5071833;28;20523;-72
2021/03/31 06:11:52;;;;;;;14.43;10.23;;;11.30;81.50;;;;;;5071175;28;21137;-71
2021/03/31 06:14:35;;;;;;;12.97;11.60;;;11.30;82.10;;;;;;5075232;28;20424;-71
2021/03/31 06:17:10;;;;;;;13.73;12.33;;;11.40;82.10;;;;;;5075500;28;20486;-71
2021/03/31 06:19:41;;;;;;;16.77;13.10;;;11.40;82.80;;;;;;5071435;28;20414;-71
2021/03/31 06:22:30;;;;;;;19.23;14.70;;;11.40;83.10;;;;;;5071985;28;20448;-71
2021/03/31 06:25:18;;;;;;;15.03;13.37;;;11.50;82.40;;;;;;5072216;28;20430;-71
2021/03/31 06:27:58;;;;;;;17.80;14.57;;;11.50;82.00;;;;;;5071474;28;20412;-71
2021/03/31 06:30:26;;;;;;;15.30;13.40;;;11.60;82.40;;;;;;5070762;28;20451;-71
2021/03/31 06:32:55;;;;;;;15.63;13.70;;;11.60;82.00;;;;;;5071947;28;20574;-72
2021/03/31 06:35:24;;;;;;;21.77;14.03;;;11.70;81.30;;;;;;5071460;28;20421;-71
2021/03/31 06:37:51;;;;;;;19.67;14.43;;;11.80;81.40;;;;;;5071801;28;20420;-71
2021/03/31 06:40:36;;;;;;;15.83;13.43;;;11.80;81.40;;;;;;5071516;28;20440;-71
2021/03/31 06:43:21;;;;;;;23.10;14.30;;;11.90;82.40;;;;;;5071435;28;20421;-72
2021/03/31 06:46:00;;;;;;;17.30;14.83;;;11.90;81.20;;;;;;5071390;28;20456;-71
2021/03/31 06:48:28;;;;;;;15.97;13.47;;;12.00;80.90;;;;;;5073593;28;20416;-71
2021/03/31 06:50:54;;;;;;;16.97;13.47;;;12.10;79.90;;;;;;5075404;28;20415;-71
2021/03/31 06:53:29;;;;;;;17.83;13.60;;;12.20;79.40;;;;;;5074997;28;20453;-71
2021/03/31 06:56:04;;;;;;;19.03;14.77;;;12.30;79.30;;;;;;5075406;28;20437;-71
2021/03/31 06:58:30;;;;;;;15.97;13.90;;;12.40;77.80;;;;;;5074520;28;20482;-71
2021/03/31 07:00:56;;;;;;;16.27;13.33;;;12.50;78.00;;;;;;5075224;28;20415;-71
2021/03/31 07:03:22;;;;;;;19.10;13.27;;;12.60;79.00;;;;;;5074851;28;20427;-71
2021/03/31 07:05:49;;;;;;;16.67;13.63;;;12.60;78.40;;;;;;5075119;28;20249;-71
2021/03/31 07:08:16;;;;;;;13.67;12.33;;;12.80;77.80;;;;;;5075192;28;20422;-70
2021/03/31 07:10:54;;;;;;;15.33;12.90;;;12.90;76.70;;;;;;5074476;28;20415;-71
2021/03/31 07:13:35;;;;;;;15.80;13.33;;;13.00;75.50;;;;;;5074595;28;20783;-71
2021/03/31 07:16:02;;;;;;;15.00;12.90;;;13.10;74.90;;;;;;5074939;28;20427;-71
2021/03/31 07:18:31;;;;;;;15.13;13.57;;;13.20;74.10;;;;;;5073273;28;20920;-70
2021/03/31 07:20:57;;;;;;;14.33;12.17;;;13.40;74.00;;;;;;5074880;28;20453;-70
2021/03/31 07:23:25;;;;;;;14.07;10.90;;;13.50;74.30;;;;;;5074471;28;20453;-71
2021/03/31 07:25:52;;;;;;;13.33;11.70;;;13.60;75.80;;;;;;5074431;28;20928;-70
2021/03/31 07:28:24;;;;;;;13.40;11.93;;;13.70;76.00;;;;;;5074499;28;20444;-71
2021/03/31 07:30:50;;;;;;;13.90;11.80;;;13.80;75.60;;;;;;5074176;28;20413;-71
2021/03/31 07:33:21;;;;;;;16.10;12.13;;;14.00;74.80;;;;;;5074649;28;20476;-71
2021/03/31 07:35:48;;;;;;;13.50;12.10;;;14.10;75.50;;;;;;5074838;28;20406;-71
2021/03/31 07:38:16;;;;;;;12.80;11.60;;;14.20;74.90;;;;;;5074808;28;20456;-71
2021/03/31 07:40:43;;;;;;;13.43;12.10;;;14.30;74.10;;;;;;5074214;28;20410;-70
2021/03/31 07:43:13;;;;;;;13.07;11.30;;;14.50;73.10;;;;;;5073542;28;20411;-71
2021/03/31 07:45:48;;;;;;;13.63;11.73;;;14.60;72.30;;;;;;5073710;28;20415;-71
2021/03/31 07:48:15;;;;;;;15.33;11.57;;;14.80;71.80;;;;;;5074412;28;20441;-70
2021/03/31 07:50:41;;;;;;;15.80;13.40;;;15.00;72.30;;;;;;5079225;28;20495;-70
2021/03/31 07:53:07;;;;;;;15.33;12.47;;;15.10;70.60;;;;;;5074165;28;20440;-70
2021/03/31 07:55:39;;;;;;;14.60;13.13;;;15.30;69.70;;;;;;5072060;28;20462;-71
2021/03/31 07:58:18;;;;;;;18.03;14.70;;;15.40;69.10;;;;;;5072479;28;20436;-70
2021/03/31 08:00:54;;;;;;;16.43;14.60;;;15.60;69.10;;;;;;5072435;28;20494;-71
2021/03/31 08:03:25;;;;;;;20.63;13.37;;;15.70;68.20;;;;;;5073810;28;20429;-70
2021/03/31 08:06:06;;;;;;;16.23;14.10;;;15.90;68.00;;;;;;5073498;28;20499;-70
2021/03/31 08:08:34;;;;;;;17.63;14.63;;;16.00;65.90;;;;;;5071739;28;20459;-70
2021/03/31 08:11:00;;;;;;;16.90;15.10;;;16.10;66.90;;;;;;5072628;28;20409;-70
2021/03/31 08:13:35;;;;;;;20.17;16.17;;;16.30;66.90;;;;;;5072045;28;20499;-70
2021/03/31 08:16:23;;;;;;;20.87;17.50;;;16.40;69.00;;;;;;5054536;28;20431;-70
2021/03/31 08:18:51;;;;;;;26.63;18.50;;;16.60;69.90;;;;;;5053278;28;20440;-70
2021/03/31 08:21:28;;;;;;;22.03;17.67;;;16.70;67.70;;;;;;5052389;28;20875;-70
2021/03/31 08:23:57;;;;;;;27.40;17.87;;;16.90;67.90;;;;;;5053763;28;20424;-70
2021/03/31 08:26:34;;;;;;;21.63;16.83;;;17.00;66.90;;;;;;5053853;28;20416;-69
2021/03/31 08:29:03;;;;;;;29.00;17.80;;;17.10;67.60;;;;;;5053941;28;20490;-70
2021/03/31 08:31:34;;;;;;;24.20;16.30;;;17.30;70.90;;;;;;5053119;28;20447;-69
2021/03/31 08:34:00;;;;;;;18.73;16.70;;;17.40;70.50;;;;;;5053599;28;20499;-70
2021/03/31 08:36:25;;;;;;;20.27;16.60;;;17.60;67.10;;;;;;5052765;28;20996;-70
2021/03/31 08:38:53;;;;;;;18.57;16.63;;;17.70;64.00;;;;;;5053493;28;20645;-70
2021/03/31 08:41:21;;;;;;;21.77;15.97;;;17.80;66.10;;;;;;5053707;28;20174;-70
2021/03/31 08:43:48;;;;;;;18.73;14.93;;;18.00;65.60;;;;;;5052939;28;20796;-70
2021/03/31 08:46:28;;;;;;;22.80;16.13;;;18.10;64.10;;;;;;5053451;28;20490;-70
2021/03/31 08:48:54;;;;;;;27.27;16.03;;;18.20;64.90;;;;;;5053529;28;20443;-70
2021/03/31 08:51:20;;;;;;;23.20;16.47;;;18.40;61.40;;;;;;5053348;28;20469;-70
2021/03/31 08:53:47;;;;;;;19.20;15.43;;;18.50;61.00;;;;;;5052764;28;20180;-70
2021/03/31 08:56:21;;;;;;;18.30;15.67;;;18.70;60.30;;;;;;5053566;28;20407;-70
2021/03/31 08:58:49;;;;;;;17.47;14.90;;;18.80;61.00;;;;;;5052708;28;20396;-70
2021/03/31 09:01:25;;;;;;;20.00;16.40;;;18.90;60.70;;;;;;5053217;28;20412;-70
2021/03/31 09:03:50;;;;;;;15.83;14.20;;;19.00;58.40;;;;;;5052688;28;20414;-70
2021/03/31 09:06:19;;;;;;;16.47;14.53;;;19.10;58.50;;;;;;5053221;28;20499;-69
2021/03/31 09:08:46;;;;;;;23.70;15.50;;;19.20;58.60;;;;;;5052754;28;20193;-70
2021/03/31 09:11:12;;;;;;;18.50;15.33;;;19.30;59.30;;;;;;5052957;28;20411;-70
2021/03/31 09:13:39;;;;;;;22.03;15.80;;;19.40;59.30;;;;;;5052153;28;20408;-70
2021/03/31 09:16:15;;;;;;;16.10;14.40;;;19.60;62.10;;;;;;5051601;28;20640;-69
2021/03/31 09:18:41;;;;;;;16.93;14.83;;;19.70;58.20;;;;;;5052373;28;20542;-70
2021/03/31 09:21:08;;;;;;;15.50;13.30;;;19.90;58.20;;;;;;5052938;28;20933;-70
2021/03/31 09:23:34;;;;;;;15.80;13.80;;;20.00;54.80;;;;;;5051955;28;20823;-70
2021/03/31 09:26:04;;;;;;;15.77;12.43;;;20.20;54.10;;;;;;5053003;28;20416;-70
2021/03/31 09:28:31;;;;;;;18.40;12.17;;;20.40;53.50;;;;;;5052250;28;20400;-70
2021/03/31 09:31:06;;;;;;;13.30;11.27;;;20.70;55.00;;;;;;5052716;28;20412;-70
2021/03/31 09:33:34;;;;;;;12.77;11.43;;;21.00;53.10;;;;;;5052123;28;20870;-70
2021/03/31 09:36:17;;;;;;;13.27;9.27;;;21.40;52.00;;;;;;5052772;28;20459;-71
2021/03/31 09:38:43;;;;;;;9.00;8.13;;;21.80;52.30;;;;;;5052081;28;20515;-70
2021/03/31 09:41:11;;;;;;;9.07;8.23;;;22.10;52.70;;;;;;5052310;28;20830;-70
2021/03/31 09:43:37;;;;;;;9.63;8.73;;;22.50;51.80;;;;;;5052285;28;20430;-70
2021/03/31 09:46:03;;;;;;;7.93;7.23;;;22.90;52.40;;;;;;5052640;28;20447;-70
2021/03/31 09:48:29;;;;;;;8.00;7.03;;;23.10;46.10;;;;;;5052296;28;20446;-70
2021/03/31 09:50:55;;;;;;;8.57;7.77;;;23.40;45.30;;;;;;5051223;28;20185;-71
2021/03/31 09:53:23;;;;;;;7.30;6.70;;;23.70;47.60;;;;;;5051199;28;20460;-71
2021/03/31 09:55:50;;;;;;;9.57;7.17;;;24.00;47.40;;;;;;5051888;28;20855;-70
2021/03/31 09:58:25;;;;;;;9.63;8.20;;;24.30;46.80;;;;;;5052414;28;20400;-71
2021/03/31 10:00:52;;;;;;;7.33;6.60;;;24.70;47.10;;;;;;5051594;28;21067;-71
2021/03/31 10:03:19;;;;;;;8.30;7.60;;;25.00;45.80;;;;;;5051978;28;20899;-71
2021/03/31 10:05:45;;;;;;;11.80;6.20;;;25.30;50.00;;;;;;5051465;28;20415;-71
2021/03/31 10:08:13;;;;;;;7.10;6.53;;;25.60;49.30;;;;;;5052339;28;20409;-71
2021/03/31 10:10:44;;;;;;;7.40;6.70;;;25.90;46.60;;;;;;5051755;28;20243;-70
2021/03/31 10:13:15;;;;;;;7.63;6.50;;;26.00;44.40;;;;;;5052184;28;20436;-70
2021/03/31 10:15:43;;;;;;;8.13;6.97;;;26.20;46.10;;;;;;5050349;28;20899;-70
2021/03/31 10:18:10;;;;;;;7.80;7.10;;;26.50;45.00;;;;;;5052378;28;20427;-70
2021/03/31 10:20:42;;;;;;;7.07;6.53;;;26.70;43.10;;;;;;5051311;28;20915;-71
2021/03/31 10:23:24;;;;;;;10.40;6.70;;;26.90;43.40;;;;;;5053011;28;21025;-71
2021/03/31 10:25:50;;;;;;;9.17;7.30;;;27.20;44.40;;;;;;5055539;28;20380;-70
2021/03/31 10:28:37;;;;;;;7.50;6.90;;;27.30;42.60;;;;;;5056088;28;20416;-70
2021/03/31 10:31:23;;;;;;;6.77;6.23;;;27.50;45.30;;;;;;5056081;28;20412;-70
2021/03/31 10:33:49;;;;;;;8.23;7.53;;;27.70;41.70;;;;;;5055773;28;20488;-70
2021/03/31 10:36:39;;;;;;;6.93;6.33;;;27.90;40.30;;;;;;5055998;28;20416;-70
2021/03/31 10:49:53;;;;;;;7.93;7.23;;;28.60;41.10;;;;;;5055232;28;20458;-70
2021/03/31 10:52:32;;;;;;;7.70;7.10;;;28.70;36.60;;;;;;5055424;28;20478;-70
2021/03/31 10:54:58;;;;;;;6.73;6.03;;;28.80;34.90;;;;;;5055777;28;20404;-71
2021/03/31 10:57:24;;;;;;;6.87;6.37;;;28.80;36.20;;;;;;5055617;28;20427;-70
2021/03/31 10:59:49;;;;;;;7.27;6.70;;;28.80;34.90;;;;;;5055028;28;20169;-70
2021/03/31 11:02:15;;;;;;;6.00;5.57;;;28.80;35.60;;;;;;5055818;28;20268;-70
2021/03/31 11:04:42;;;;;;;6.40;5.80;;;28.80;34.80;;;;;;5054869;28;20174;-70
2021/03/31 11:07:08;;;;;;;7.77;5.80;;;28.70;36.20;;;;;;5055340;28;20170;-70
2021/03/31 11:09:34;;;;;;;5.70;5.30;;;28.80;38.00;;;;;;5054928;28;20904;-70
2021/03/31 11:12:00;;;;;;;6.30;5.90;;;28.90;36.00;;;;;;5055223;28;20209;-70
2021/03/31 11:14:28;;;;;;;6.40;5.90;;;29.00;35.50;;;;;;5055315;28;20409;-71
2021/03/31 11:27:35;;;;;;;6.47;6.07;;;29.10;37.20;;;;;;5054594;28;20801;-71
2021/03/31 11:30:03;;;;;;;7.83;7.00;;;29.30;36.00;;;;;;5055031;28;20400;-71
2021/03/31 11:32:29;;;;;;;6.60;6.00;;;29.30;35.40;;;;;;5054649;28;20221;-71
2021/03/31 11:34:55;;;;;;;6.60;6.10;;;29.40;34.50;;;;;;5053080;28;20738;-71
2021/03/31 11:37:20;;;;;;;7.30;6.63;;;29.50;34.00;;;;;;5054891;28;20423;-71
2021/03/31 11:39:46;;;;;;;6.10;5.70;;;29.40;31.70;;;;;;5054234;28;20178;-71
2021/03/31 11:42:12;;;;;;;6.50;5.90;;;29.40;32.80;;;;;;5054013;28;20665;-71
2021/03/31 11:44:37;;;;;;;11.03;9.90;;;29.30;31.80;;;;;;5054212;28;20173;-71
2021/03/31 11:47:03;;;;;;;7.27;6.67;;;29.40;35.80;;;;;;5054903;28;20174;-71
2021/03/31 11:49:29;;;;;;;6.50;6.10;;;29.30;35.50;;;;;;5054463;28;20541;-71
2021/03/31 11:51:55;;;;;;;6.57;5.90;;;29.40;36.00;;;;;;5053677;28;20684;-71
2021/03/31 11:54:20;;;;;;;5.40;5.00;;;29.40;31.70;;;;;;5054528;28;20173;-71
2021/03/31 11:56:46;;;;;;;5.77;5.27;;;29.40;31.10;;;;;;5053918;28;20174;-70
2021/03/31 11:59:12;;;;;;;5.60;5.10;;;29.40;32.50;;;;;;5054407;28;20178;-70
2021/03/31 12:01:37;;;;;;;5.63;5.13;;;29.40;32.70;;;;;;5053983;28;20185;-71
2021/03/31 12:04:03;;;;;;;4.77;4.43;;;29.50;30.10;;;;;;5054264;28;20623;-71
2021/03/31 12:06:29;;;;;;;5.33;4.83;;;29.40;31.50;;;;;;5054167;28;20625;-71
2021/03/31 12:08:55;;;;;;;5.33;4.93;;;29.40;30.90;;;;;;5053691;28;20174;-70
2021/03/31 12:11:21;;;;;;;6.43;5.40;;;29.40;31.90;;;;;;5054116;28;20216;-70
2021/03/31 12:13:46;;;;;;;5.00;4.70;;;29.40;31.30;;;;;;5053641;28;20181;-70
2021/03/31 12:16:12;;;;;;;6.00;5.70;;;29.40;31.90;;;;;;5054239;28;20238;-71
2021/03/31 12:18:38;;;;;;;7.27;6.57;;;29.50;32.20;;;;;;5053641;28;20269;-70
2021/03/31 12:21:05;;;;;;;7.00;6.50;;;29.50;31.50;;;;;;5053929;28;20628;-71
2021/03/31 12:23:31;;;;;;;5.10;4.70;;;29.50;31.70;;;;;;5054021;28;20185;-71
2021/03/31 12:25:58;;;;;;;4.87;4.47;;;29.50;34.10;;;;;;5053249;28;20419;-71
2021/03/31 12:28:26;;;;;;;4.90;4.60;;;29.50;32.90;;;;;;5054056;28;20174;-71
2021/03/31 12:30:52;;;;;;;5.07;4.77;;;29.40;35.30;;;;;;5053488;28;20420;-71
2021/03/31 12:33:18;;;;;;;7.40;6.90;;;29.50;32.90;;;;;;5053556;28;20501;-71
2021/03/31 12:35:44;;;;;;;5.77;5.47;;;29.40;32.00;;;;;;5053125;28;20432;-71
2021/03/31 12:38:10;;;;;;;5.80;5.30;;;29.40;31.80;;;;;;5053725;28;20400;-71
2021/03/31 12:40:36;;;;;;;5.93;5.53;;;29.40;32.00;;;;;;5053777;28;20188;-70
2021/03/31 12:43:03;;;;;;;5.97;5.43;;;29.30;31.30;;;;;;5052735;28;20188;-71
2021/03/31 12:45:28;;;;;;;7.00;6.40;;;29.30;30.80;;;;;;5053274;28;20208;-71
2021/03/31 12:47:54;;;;;;;6.07;5.57;;;29.20;31.10;;;;;;5052846;28;20444;-71
2021/03/31 12:50:21;;;;;;;6.60;6.10;;;29.20;32.90;;;;;;5053379;28;20272;-70
2021/03/31 12:52:52;;;;;;;6.60;6.10;;;29.10;31.60;;;;;;5052826;28;20205;-71
2021/03/31 12:55:21;;;;;;;6.73;6.23;;;29.10;34.70;;;;;;5053519;28;20416;-71
2021/03/31 12:57:48;;;;;;;6.63;5.93;;;29.00;30.30;;;;;;5052689;28;20404;-71
2021/03/31 13:00:16;;;;;;;5.97;5.50;;;28.80;30.70;;;;;;5053255;28;20477;-71
2021/03/31 13:02:43;;;;;;;5.77;5.37;;;28.70;31.40;;;;;;5052231;28;20412;-71